CYGL

La Grande Rivière Airport

La Grande Rivière, Quebec, Canada
METAR CYGL 220600Z 20005KT 15SM SKC M07/M10 A3035 RMK SLP293
Observed Flight Rules
Apr-22 @ 06:00 UTC (53 minutes ago) Visual Flight Rules
Wind Visibility Clouds
200° at 5 knots 15 miles
  • Clear skies
Temperatures Readings
Current -7°C / 19°F
Dewpoint -10°C / 14°F
Humidity 79%
Altimeter 30.35" Hg
Pressure 1029.3 hPa
Elevation 195
METAR CYGL 220600Z 20005KT 15SM SKC M07/M10 A3035 RMK SLP293
Observed Flight Rules
Apr-22 @ 06:00 UTC
(53 minutes ago)
VFR
Wind Visibility
200° at 5 knots 15 miles
Clouds
  • Clear skies
Temperature Dewpoint
-7°C / 19°F -10°C / 14°F
Humidity Altimeter Pressure
79% 30.35" Hg 1029.3 hPa